< < Back
Terminal Aerodrome Forecast


Current Version              Previous Versions:   1  2  3  4  5  6  7  8  9  

Terminal Aerodrome Forecast

082
FTUS42 KGSP 261403 AAB
TAFAVL
TAF AMD
KAVL 261403Z 2614/2712 34008KT P6SM FEW025 BKN040
     FM261530 32011G19KT P6SM BKN015
     FM261800 32012G21KT P6SM BKN025
     FM262100 32011G19KT P6SM BKN050
     FM270700 32010G18KT P6SM SCT110=



Latest METAR

771
SAUS70 KWBC 261800 RRJ
MTRAVL
METAR KAVL 261754Z 35012KT 10SM OVC031 05/00 A2969 RMK AO2 SLP055 60002
T00500000 10067 20028 50001


USA.gov is the U.S. government's official web portal to all federal, state and local government web resources and services.